createdAt,value
2023-09-22T00:00:14.941Z,67.98
2023-09-22T00:05:10.773Z,68.01
2023-09-22T00:10:08.969Z,68.0
2023-09-22T00:15:08.161Z,68.01
2023-09-22T00:20:08.390Z,68.06
2023-09-22T00:25:08.584Z,68.05
2023-09-22T00:30:08.722Z,68.07
2023-09-22T00:35:08.925Z,68.07
2023-09-22T00:40:09.161Z,68.09
2023-09-22T00:45:08.196Z,68.07
2023-09-22T00:50:08.383Z,68.07
2023-09-22T00:55:08.524Z,68.1
2023-09-22T01:00:08.694Z,68.11
2023-09-22T01:05:08.584Z,68.15
2023-09-22T01:10:08.728Z,68.15
2023-09-22T01:15:08.898Z,68.16
2023-09-22T01:20:09.160Z,68.18
2023-09-22T01:25:08.353Z,68.2
2023-09-22T01:30:08.525Z,68.2
2023-09-22T01:35:08.649Z,68.22
2023-09-22T01:40:08.950Z,68.25
2023-09-22T01:45:08.056Z,68.27
2023-09-22T01:50:08.239Z,68.27
2023-09-22T01:55:08.437Z,68.27
2023-09-22T02:00:08.564Z,68.33
2023-09-22T02:05:08.829Z,68.33
2023-09-22T02:10:09.123Z,68.33
2023-09-22T02:15:08.353Z,68.31
2023-09-22T02:20:08.499Z,68.34
2023-09-22T02:25:08.768Z,68.38
2023-09-22T02:30:08.951Z,68.37
2023-09-22T02:35:08.101Z,68.38
2023-09-22T02:40:08.336Z,68.37
2023-09-22T02:45:08.523Z,68.38
2023-09-22T02:50:08.677Z,68.38
2023-09-22T02:55:08.862Z,68.41
2023-09-22T03:00:09.028Z,68.43
2023-09-22T03:05:08.203Z,68.44
2023-09-22T03:10:08.566Z,68.48
2023-09-22T03:15:08.673Z,68.47
2023-09-22T03:20:08.871Z,68.51
2023-09-22T03:25:09.194Z,68.56
2023-09-22T03:30:08.479Z,68.57
2023-09-22T03:35:08.683Z,68.6
2023-09-22T03:40:08.939Z,68.61
2023-09-22T03:45:09.178Z,68.62
2023-09-22T03:50:08.376Z,68.62
2023-09-22T03:55:08.492Z,68.62
2023-09-22T04:00:08.692Z,68.65
2023-09-22T04:05:02.990Z,68.66
2023-09-22T04:10:02.468Z,68.66
2023-09-22T04:15:02.794Z,68.67
2023-09-22T04:20:03.145Z,68.7
2023-09-22T04:25:02.595Z,68.69
2023-09-22T04:30:05.106Z,68.71
2023-09-22T04:35:06.366Z,68.71
2023-09-22T04:40:04.961Z,68.71
2023-09-22T04:45:02.225Z,68.72
2023-09-22T04:50:02.503Z,68.72
2023-09-22T04:55:09.068Z,68.68
2023-09-22T05:00:03.904Z,68.67
2023-09-22T05:05:03.252Z,68.68
2023-09-22T05:10:02.573Z,68.67
2023-09-22T05:15:02.894Z,68.68
2023-09-22T05:20:02.250Z,68.67
2023-09-22T05:25:03.770Z,68.68
2023-09-22T05:30:03.048Z,68.67
2023-09-22T05:35:02.426Z,68.68
2023-09-22T05:40:02.735Z,68.65
2023-09-22T05:45:03.232Z,68.66
2023-09-22T05:50:02.520Z,68.68
2023-09-22T05:55:02.876Z,68.68
2023-09-22T06:00:02.290Z,68.65
2023-09-22T06:05:02.652Z,68.67
2023-09-22T06:10:10.311Z,68.65
2023-09-22T06:15:02.664Z,68.67
2023-09-22T06:20:04.375Z,68.66
2023-09-22T06:25:04.649Z,68.67
2023-09-22T06:30:04.680Z,68.64
2023-09-22T06:35:07.050Z,68.64
2023-09-22T06:40:04.306Z,68.65
2023-09-22T06:45:04.854Z,68.7
2023-09-22T06:50:04.340Z,68.72
2023-09-22T06:55:04.222Z,68.72
2023-09-22T07:00:04.122Z,68.7
2023-09-22T07:05:02.387Z,68.72
2023-09-22T07:10:03.383Z,68.7
2023-09-22T07:15:02.812Z,68.71
2023-09-22T07:20:03.117Z,68.7
2023-09-22T07:25:02.552Z,68.72
2023-09-22T07:30:02.945Z,68.71
2023-09-22T07:35:02.205Z,68.71
2023-09-22T07:40:02.649Z,68.71
2023-09-22T07:45:03.118Z,68.71
2023-09-22T07:50:02.676Z,68.67
2023-09-22T07:55:02.919Z,68.67
2023-09-22T08:00:02.358Z,68.65
2023-09-22T08:05:02.699Z,68.64
2023-09-22T08:10:03.027Z,68.58
2023-09-22T08:15:02.576Z,68.57
2023-09-22T08:20:02.892Z,68.56
2023-09-22T08:25:03.304Z,68.5
2023-09-22T08:30:02.930Z,68.5
2023-09-22T08:35:02.237Z,68.47
2023-09-22T08:40:02.496Z,68.44
2023-09-22T08:45:03.225Z,68.42
2023-09-22T08:50:02.396Z,68.36
2023-09-22T08:55:02.647Z,68.34
2023-09-22T09:00:02.991Z,68.31
2023-09-22T09:05:02.218Z,68.26
2023-09-22T09:10:02.906Z,68.26
2023-09-22T09:15:02.807Z,68.19
2023-09-22T09:20:03.263Z,68.16
2023-09-22T09:25:02.650Z,68.12
2023-09-22T09:30:02.975Z,68.06
2023-09-22T09:35:02.416Z,68.0
2023-09-22T09:40:02.811Z,67.93
2023-09-22T09:45:03.233Z,67.9
2023-09-22T09:50:02.568Z,67.84
2023-09-22T09:55:02.916Z,67.79
2023-09-22T10:00:02.450Z,67.72
2023-09-22T10:05:02.728Z,67.62
2023-09-22T10:10:03.145Z,67.55
2023-09-22T10:15:02.765Z,67.48
2023-09-22T10:20:03.137Z,67.37
2023-09-22T10:25:02.453Z,67.32
2023-09-22T10:30:02.995Z,67.23
2023-09-22T10:35:02.384Z,67.12
2023-09-22T10:40:02.907Z,67.08
2023-09-22T10:45:02.235Z,67.04
2023-09-22T10:50:02.530Z,66.99
2023-09-22T10:55:02.879Z,66.97
2023-09-22T11:00:06.897Z,66.94
2023-09-22T11:05:03.783Z,66.95
2023-09-22T11:10:03.654Z,66.95
2023-09-22T11:15:03.303Z,66.85
2023-09-22T11:20:02.553Z,66.87
2023-09-22T11:25:02.809Z,66.85
2023-09-22T11:30:04.206Z,66.85
2023-09-22T11:35:25.204Z,66.82
2023-09-22T11:40:06.182Z,66.87
2023-09-22T11:45:24.453Z,66.85
2023-09-22T11:50:02.791Z,66.85
2023-09-22T11:55:03.104Z,66.89
2023-09-22T12:00:02.715Z,66.87
2023-09-22T12:05:05.119Z,66.86
2023-09-22T12:10:02.483Z,66.81
2023-09-22T12:15:02.816Z,66.79
2023-09-22T12:20:02.972Z,66.8
2023-09-22T12:25:02.272Z,66.77
2023-09-22T12:30:02.537Z,66.77
2023-09-22T12:35:02.799Z,66.73
2023-09-22T12:40:04.951Z,66.67
2023-09-22T12:45:02.547Z,66.65
2023-09-22T12:50:04.488Z,66.65
2023-09-22T12:55:02.880Z,66.59
2023-09-22T13:00:04.240Z,66.55
2023-09-22T13:05:11.766Z,66.55
2023-09-22T13:10:03.205Z,66.55
2023-09-22T13:15:02.627Z,66.52
2023-09-22T13:20:05.585Z,66.53
2023-09-22T13:25:03.220Z,66.51
2023-09-22T13:30:02.494Z,66.51
2023-09-22T13:35:03.179Z,66.54
2023-09-22T13:40:02.776Z,66.59
2023-09-22T13:45:03.021Z,66.62
2023-09-22T13:50:02.677Z,66.62
2023-09-22T13:55:03.255Z,66.64
2023-09-22T14:00:02.600Z,66.68
2023-09-22T14:05:03.250Z,66.67
2023-09-22T14:10:02.529Z,66.67
2023-09-22T14:15:02.938Z,66.65
2023-09-22T14:20:02.086Z,66.59
2023-09-22T14:25:02.418Z,66.62
2023-09-22T14:30:02.791Z,66.62
2023-09-22T14:35:03.132Z,66.64
2023-09-22T14:40:02.479Z,66.62
2023-09-22T14:45:02.811Z,66.64
2023-09-22T14:50:03.568Z,66.64
2023-09-22T14:55:03.022Z,66.67
2023-09-22T15:00:02.395Z,66.71
2023-09-22T15:05:02.758Z,66.73
2023-09-22T15:10:03.164Z,66.73
2023-09-22T15:15:02.567Z,66.81
2023-09-22T15:20:02.893Z,66.84
2023-09-22T15:25:03.173Z,66.87
2023-09-22T15:30:02.411Z,66.87
2023-09-22T15:35:02.683Z,66.91
2023-09-22T15:40:03.044Z,66.93
2023-09-22T15:45:02.403Z,66.93
2023-09-22T15:50:10.244Z,66.96
2023-09-22T15:55:02.674Z,67.0
2023-09-22T16:00:03.068Z,67.01
2023-09-22T16:05:02.547Z,67.06
2023-09-22T16:10:02.933Z,67.07
2023-09-22T16:15:03.242Z,67.07
2023-09-22T16:20:02.614Z,67.08
2023-09-22T16:25:03.051Z,67.1
2023-09-22T16:30:02.370Z,67.13
2023-09-22T16:35:02.802Z,67.15
2023-09-22T16:40:04.267Z,67.18
2023-09-22T16:45:02.745Z,67.18
2023-09-22T16:50:03.172Z,67.18
2023-09-22T16:55:02.549Z,67.22
2023-09-22T17:00:02.899Z,67.22
2023-09-22T17:05:03.856Z,67.22
2023-09-22T17:10:03.170Z,67.36
2023-09-22T17:15:02.489Z,67.4
2023-09-22T17:20:02.851Z,67.4
2023-09-22T17:25:06.475Z,67.53
2023-09-22T17:30:02.961Z,67.55
2023-09-22T17:35:04.049Z,67.55
2023-09-22T17:40:06.015Z,67.55
2023-09-22T17:45:02.340Z,67.67
2023-09-22T17:50:02.709Z,67.71
2023-09-22T17:55:03.073Z,67.7
2023-09-22T18:00:02.571Z,67.7
2023-09-22T18:05:06.276Z,67.8
2023-09-22T18:10:02.672Z,67.83
2023-09-22T18:15:03.019Z,67.89
2023-09-22T18:20:02.419Z,67.92
2023-09-22T18:25:05.862Z,67.92
2023-09-22T18:30:03.212Z,67.97
2023-09-22T18:35:02.566Z,68.0
2023-09-22T18:40:02.953Z,67.99
2023-09-22T18:45:02.422Z,68.05
2023-09-22T18:50:02.774Z,68.05
2023-09-22T18:55:05.497Z,68.1
2023-09-22T19:00:02.867Z,68.06
2023-09-22T19:05:03.306Z,68.12
2023-09-22T19:10:02.673Z,68.12
2023-09-22T19:15:03.409Z,68.12
2023-09-22T19:20:02.802Z,68.12
2023-09-22T19:25:03.086Z,68.12
2023-09-22T19:30:03.125Z,68.19
2023-09-22T19:35:02.604Z,68.25
2023-09-22T19:40:02.869Z,68.25
2023-09-22T19:45:03.294Z,68.25
2023-09-22T19:50:02.750Z,68.29
2023-09-22T19:55:03.122Z,68.27
2023-09-22T20:00:02.612Z,68.29
2023-09-22T20:05:03.075Z,68.27
2023-09-22T20:10:02.459Z,68.31
2023-09-22T20:15:03.130Z,68.31
2023-09-22T20:20:02.530Z,68.31
2023-09-22T20:25:02.881Z,68.3
2023-09-22T20:30:03.129Z,68.32
2023-09-22T20:35:02.491Z,68.32
2023-09-22T20:40:02.943Z,68.32
2023-09-22T20:45:02.376Z,68.34
2023-09-22T20:50:03.041Z,68.34
2023-09-22T20:55:02.292Z,68.33
2023-09-22T21:00:02.776Z,68.36
2023-09-22T21:05:03.214Z,68.37
2023-09-22T21:10:02.570Z,68.37
2023-09-22T21:15:02.892Z,68.37
2023-09-22T21:20:03.159Z,68.32
2023-09-22T21:25:02.760Z,68.31
2023-09-22T21:30:03.215Z,68.35
2023-09-22T21:35:03.517Z,68.35
2023-09-22T21:40:03.202Z,68.37
2023-09-22T21:45:03.529Z,68.34
2023-09-22T21:50:03.589Z,68.37
2023-09-22T21:55:05.845Z,68.4
2023-09-22T22:00:03.139Z,68.39
2023-09-22T22:05:15.270Z,68.42
2023-09-22T22:10:08.391Z,68.43
2023-09-22T22:15:08.574Z,68.46
2023-09-22T22:20:08.877Z,68.46
2023-09-22T22:25:08.178Z,68.48
2023-09-22T22:30:08.368Z,68.49
2023-09-22T22:35:08.619Z,68.48
2023-09-22T22:40:08.907Z,68.51
2023-09-22T22:45:09.115Z,68.5
2023-09-22T22:50:08.339Z,68.5
2023-09-22T22:55:08.598Z,68.5
2023-09-22T23:01:08.137Z,68.6
2023-09-22T23:05:08.342Z,68.61
2023-09-22T23:10:08.559Z,68.6
2023-09-22T23:15:08.732Z,68.61
2023-09-22T23:20:08.997Z,68.64
2023-09-22T23:25:08.246Z,68.61
2023-09-22T23:30:08.461Z,68.66
2023-09-22T23:35:08.693Z,68.66
2023-09-22T23:40:09.546Z,68.67
2023-09-22T23:45:08.940Z,68.64
2023-09-22T23:50:08.091Z,68.68
2023-09-22T23:55:08.308Z,68.67
